Time;durP1;ratioP1;P1;durP2;ratioP2;P2;SDS_P1;SDS_P2;PMS_P1;PMS_P2;Temp;Humidity;BMP_temperature;BMP_pressure;BME280_temperature;BME280_humidity;BME280_pressure;Samples;Min_cycle;Max_cycle;Signal;HPM_P1;HPM_P2
2022/08/14 04:01:20;;;;;;;6.73;4.73;;;17.80;99.90;;;;;;5618922;23;20513;-74
2022/08/14 04:03:47;;;;;;;5.30;4.27;;;17.80;99.90;;;;;;5011838;28;20520;-74
2022/08/14 04:06:15;;;;;;;5.40;4.67;;;17.80;99.90;;;;;;5011123;28;20957;-73
2022/08/14 04:08:43;;;;;;;8.03;4.90;;;17.70;99.90;;;;;;5011967;28;20461;-73
2022/08/14 04:11:10;;;;;;;4.80;4.40;;;17.80;99.90;;;;;;5011536;28;21002;-74
2022/08/14 04:13:40;;;;;;;5.40;4.47;;;17.80;99.90;;;;;;5011613;28;20458;-73
2022/08/14 04:16:10;;;;;;;7.97;5.10;;;17.70;99.90;;;;;;5050862;23;20530;-77
2022/08/14 04:18:40;;;;;;;4.60;4.20;;;17.70;99.90;;;;;;5011912;28;20448;-76
2022/08/14 04:21:08;;;;;;;5.27;4.77;;;17.70;99.90;;;;;;5011299;28;20458;-77
2022/08/14 04:23:36;;;;;;;5.30;4.80;;;17.70;99.90;;;;;;5011791;28;20553;-77
2022/08/14 04:26:04;;;;;;;5.20;4.70;;;17.60;99.90;;;;;;5011487;28;20540;-77
2022/08/14 04:28:32;;;;;;;5.40;4.90;;;17.60;99.90;;;;;;5011472;28;20474;-77
2022/08/14 04:30:58;;;;;;;5.47;4.97;;;17.60;99.90;;;;;;5011767;28;20459;-77
2022/08/14 04:33:27;;;;;;;5.57;5.07;;;17.50;99.90;;;;;;5011177;28;20470;-77
2022/08/14 04:35:56;;;;;;;6.67;4.70;;;17.50;99.90;;;;;;5011301;28;20585;-76
2022/08/14 04:43:53;;;;;;;5.80;4.47;;;17.40;99.90;;;;;;5011244;28;20438;-77
2022/08/14 04:46:21;;;;;;;9.20;5.00;;;17.40;99.90;;;;;;5014101;28;20482;-77
2022/08/14 04:48:47;;;;;;;6.63;4.70;;;17.40;99.90;;;;;;5015219;28;20462;-77
2022/08/14 04:51:18;;;;;;;4.87;4.27;;;17.40;99.90;;;;;;5014956;28;20577;-77
2022/08/14 04:53:47;;;;;;;5.47;4.93;;;17.40;99.90;;;;;;5015118;28;20457;-76
2022/08/14 04:56:16;;;;;;;5.40;4.90;;;17.40;99.90;;;;;;5014149;28;20994;-76
2022/08/14 04:58:44;;;;;;;6.03;4.93;;;17.40;99.90;;;;;;5014926;28;20461;-76
2022/08/14 05:01:12;;;;;;;6.00;5.50;;;17.30;99.90;;;;;;5015286;28;20853;-77
2022/08/14 05:03:38;;;;;;;6.00;5.47;;;17.30;99.90;;;;;;5015084;28;20463;-77
2022/08/14 05:06:08;;;;;;;6.00;5.40;;;17.30;99.90;;;;;;5014496;28;20483;-77
2022/08/14 05:08:37;;;;;;;6.53;5.73;;;17.30;99.90;;;;;;5014712;28;20450;-77
2022/08/14 05:11:06;;;;;;;5.63;5.10;;;17.30;99.90;;;;;;5015071;28;20473;-77
2022/08/14 05:13:35;;;;;;;5.43;4.93;;;17.30;99.90;;;;;;5014638;28;20943;-77
2022/08/14 05:16:04;;;;;;;6.23;5.63;;;17.30;99.90;;;;;;5014119;28;20495;-77
2022/08/14 05:18:34;;;;;;;5.63;5.13;;;17.30;99.90;;;;;;5014547;28;20950;-78
2022/08/14 05:21:04;;;;;;;7.00;5.90;;;17.30;99.90;;;;;;5014788;28;20464;-78
2022/08/14 05:23:34;;;;;;;6.20;5.70;;;17.30;99.90;;;;;;5014540;28;20455;-78
2022/08/14 05:26:04;;;;;;;6.17;5.57;;;17.40;99.90;;;;;;5014438;28;20486;-78
2022/08/14 05:28:35;;;;;;;5.70;5.20;;;17.40;99.90;;;;;;5014616;28;20831;-78
2022/08/14 05:31:05;;;;;;;7.17;5.20;;;17.30;99.90;;;;;;5014708;28;20447;-78
2022/08/14 05:33:33;;;;;;;6.20;5.60;;;17.40;99.90;;;;;;5014213;28;20570;-78
2022/08/14 05:36:02;;;;;;;6.00;5.50;;;17.40;99.90;;;;;;5013766;28;20501;-78
2022/08/14 05:38:34;;;;;;;6.27;5.70;;;17.40;99.90;;;;;;5014298;28;20814;-78
2022/08/14 05:41:04;;;;;;;6.33;5.73;;;17.40;99.90;;;;;;5014557;28;20443;-78
2022/08/14 05:43:32;;;;;;;7.13;6.00;;;17.40;99.90;;;;;;5014477;28;20459;-78
2022/08/14 05:46:00;;;;;;;5.77;5.27;;;17.40;99.90;;;;;;5013744;28;20502;-78
2022/08/14 05:48:27;;;;;;;5.93;5.43;;;17.40;99.90;;;;;;5013973;28;20466;-77
2022/08/14 05:50:55;;;;;;;6.73;5.93;;;17.50;99.90;;;;;;5014082;28;20459;-77
2022/08/14 05:53:22;;;;;;;6.33;5.70;;;17.50;99.90;;;;;;5013968;28;20467;-76
2022/08/14 05:55:49;;;;;;;6.90;5.60;;;17.50;99.90;;;;;;5012882;28;20983;-76
2022/08/14 05:58:18;;;;;;;6.27;5.67;;;17.60;99.90;;;;;;5013249;28;20457;-76
2022/08/14 06:00:46;;;;;;;6.53;5.80;;;17.50;99.90;;;;;;5013702;28;20458;-77
2022/08/14 06:03:15;;;;;;;6.60;6.00;;;17.60;99.90;;;;;;5013321;28;20462;-76
2022/08/14 06:05:43;;;;;;;6.57;5.60;;;17.60;99.90;;;;;;5013600;28;20474;-77
2022/08/14 06:08:19;;;;;;;5.90;5.40;;;17.60;99.90;;;;;;5013483;28;20459;-77
2022/08/14 06:10:46;;;;;;;5.50;4.97;;;17.70;99.90;;;;;;5013531;28;20456;-78
2022/08/14 06:13:13;;;;;;;5.77;5.23;;;17.70;99.90;;;;;;5013410;28;20466;-77
2022/08/14 06:15:41;;;;;;;6.33;5.10;;;17.70;99.90;;;;;;5012935;28;20487;-77
2022/08/14 06:18:09;;;;;;;6.00;5.37;;;17.80;99.90;;;;;;5013202;28;20490;-77
2022/08/14 06:20:37;;;;;;;9.43;4.50;;;17.80;99.90;;;;;;5013331;28;20548;-78
2022/08/14 06:23:05;;;;;;;6.70;4.90;;;17.80;99.90;;;;;;5013526;28;20478;-78
2022/08/14 06:25:32;;;;;;;5.63;4.90;;;17.90;99.90;;;;;;5012820;28;20479;-78
2022/08/14 06:27:59;;;;;;;5.60;5.10;;;17.90;99.90;;;;;;5013107;28;20470;-77
2022/08/14 06:30:28;;;;;;;5.83;5.33;;;18.00;99.90;;;;;;5013107;28;20462;-78
2022/08/14 06:32:56;;;;;;;6.60;5.90;;;18.00;99.90;;;;;;5013352;28;20481;-77
2022/08/14 06:35:23;;;;;;;6.77;5.80;;;18.10;99.90;;;;;;5012772;28;20486;-78
2022/08/14 06:37:52;;;;;;;6.67;6.00;;;18.10;99.90;;;;;;5013221;28;20496;-78
2022/08/14 06:40:21;;;;;;;5.67;5.17;;;18.10;99.90;;;;;;5013070;28;20489;-78
2022/08/14 06:42:48;;;;;;;5.50;5.00;;;18.20;99.90;;;;;;5012973;28;20534;-77
2022/08/14 06:45:16;;;;;;;6.07;5.00;;;18.20;99.90;;;;;;5012651;28;20924;-78
2022/08/14 06:47:45;;;;;;;6.40;5.43;;;18.30;99.90;;;;;;5012989;28;20458;-79
2022/08/14 06:50:16;;;;;;;6.13;5.63;;;18.40;99.90;;;;;;5012749;28;20457;-78
2022/08/14 06:52:44;;;;;;;6.87;5.27;;;18.40;99.90;;;;;;5012809;28;20467;-78
2022/08/14 06:55:13;;;;;;;7.50;5.73;;;18.50;99.90;;;;;;5012077;28;20915;-77
2022/08/14 06:57:41;;;;;;;5.50;5.00;;;18.60;99.90;;;;;;5012624;28;20486;-78
2022/08/14 07:00:11;;;;;;;5.83;5.23;;;18.80;99.90;;;;;;5012730;28;20807;-78
2022/08/14 07:05:46;;;;;;;6.07;5.53;;;18.90;99.90;;;;;;5012054;28;20657;-78
2022/08/14 07:08:14;;;;;;;7.03;5.50;;;18.90;99.90;;;;;;5012204;28;20470;-77
2022/08/14 07:10:42;;;;;;;5.60;5.10;;;19.00;99.90;;;;;;5012753;28;20521;-77
2022/08/14 07:13:13;;;;;;;5.40;4.90;;;19.10;99.90;;;;;;5012599;28;20455;-77
2022/08/14 07:15:41;;;;;;;6.23;5.10;;;19.20;99.90;;;;;;5011840;28;20482;-77
2022/08/14 07:18:09;;;;;;;5.70;5.20;;;19.30;99.90;;;;;;5012037;28;20506;-77
2022/08/14 07:20:37;;;;;;;5.70;4.83;;;19.40;99.90;;;;;;5012494;28;20690;-77
2022/08/14 07:23:06;;;;;;;5.20;4.80;;;19.50;99.90;;;;;;5012288;28;20466;-77
2022/08/14 07:25:33;;;;;;;5.57;4.80;;;19.60;99.90;;;;;;5011828;28;20489;-77
2022/08/14 07:28:00;;;;;;;6.27;4.63;;;19.70;99.90;;;;;;5012397;28;20461;-78
2022/08/14 07:30:27;;;;;;;5.60;4.23;;;19.70;99.90;;;;;;5012041;28;20458;-77
2022/08/14 07:32:54;;;;;;;4.80;3.90;;;19.80;99.90;;;;;;5012346;28;20451;-77
2022/08/14 07:35:21;;;;;;;4.23;3.83;;;19.80;99.90;;;;;;5011955;28;20565;-77
2022/08/14 07:37:50;;;;;;;5.60;4.30;;;19.90;99.90;;;;;;5012128;28;20490;-77
2022/08/14 07:40:16;;;;;;;5.03;4.10;;;20.00;99.90;;;;;;5012035;28;20461;-78
2022/08/14 07:42:44;;;;;;;5.00;4.60;;;20.10;99.90;;;;;;5012438;28;20501;-77
2022/08/14 07:45:12;;;;;;;6.40;4.80;;;20.20;99.90;;;;;;5011280;28;20482;-77
2022/08/14 07:47:41;;;;;;;5.20;4.40;;;20.30;99.90;;;;;;5011720;28;20939;-77
2022/08/14 07:50:13;;;;;;;5.73;4.50;;;20.40;99.90;;;;;;5011896;28;20455;-76
2022/08/14 07:52:40;;;;;;;5.67;4.80;;;20.50;99.90;;;;;;5012172;28;20435;-76
2022/08/14 07:55:10;;;;;;;5.20;4.10;;;20.60;99.90;;;;;;5011764;28;20458;-77
2022/08/14 07:57:39;;;;;;;4.57;4.17;;;20.70;99.90;;;;;;5011764;28;20486;-77
2022/08/14 08:00:10;;;;;;;4.90;4.03;;;20.90;99.90;;;;;;5012015;28;20455;-77
2022/08/14 08:02:39;;;;;;;4.73;4.20;;;21.00;99.90;;;;;;5011910;28;20462;-77
2022/08/14 08:05:07;;;;;;;4.60;4.20;;;21.10;99.90;;;;;;5011694;28;20814;-76
2022/08/14 08:07:35;;;;;;;4.30;3.77;;;21.30;99.90;;;;;;5011727;28;20462;-77
2022/08/14 08:12:52;;;;;;;4.37;3.97;;;21.60;99.90;;;;;;5010602;28;20466;-77
2022/08/14 08:15:19;;;;;;;6.57;3.70;;;21.80;99.90;;;;;;5011379;28;20573;-77
2022/08/14 08:17:46;;;;;;;5.53;3.70;;;21.90;99.90;;;;;;5011912;28;20479;-78
2022/08/14 08:20:16;;;;;;;3.70;3.40;;;22.10;99.90;;;;;;5012999;28;20548;-77
2022/08/14 08:22:43;;;;;;;3.80;3.50;;;22.20;99.90;;;;;;5015517;28;20462;-78
2022/08/14 08:25:11;;;;;;;4.83;3.33;;;22.30;99.90;;;;;;5015228;28;20489;-79
2022/08/14 08:27:37;;;;;;;3.70;3.30;;;22.50;99.90;;;;;;5015703;28;20494;-77
2022/08/14 08:30:09;;;;;;;3.80;2.90;;;22.80;99.90;;;;;;5015402;28;20463;-78
2022/08/14 08:32:40;;;;;;;3.90;3.03;;;22.90;99.90;;;;;;5015138;28;20494;-78
2022/08/14 08:35:16;;;;;;;6.50;3.60;;;23.10;99.90;;;;;;5014697;28;20466;-78
2022/08/14 08:37:43;;;;;;;4.13;3.23;;;23.20;99.90;;;;;;5015195;28;20482;-78
2022/08/14 08:40:11;;;;;;;4.73;3.50;;;23.30;99.90;;;;;;5015287;28;20461;-78
2022/08/14 08:42:38;;;;;;;3.70;2.93;;;23.50;99.90;;;;;;5015053;28;20508;-78
2022/08/14 08:45:08;;;;;;;3.27;2.97;;;23.60;99.90;;;;;;5014847;28;20465;-79
2022/08/14 08:47:39;;;;;;;4.20;3.53;;;23.70;99.90;;;;;;5015017;28;20828;-78
2022/08/14 08:50:20;;;;;;;3.57;3.27;;;24.20;99.90;;;;;;5015225;28;20462;-78
2022/08/14 08:52:49;;;;;;;3.97;2.90;;;24.60;98.60;;;;;;5015086;28;20934;-78
2022/08/14 08:55:16;;;;;;;3.43;3.10;;;24.90;98.80;;;;;;5014905;28;20478;-78
2022/08/14 08:57:43;;;;;;;6.07;3.00;;;25.40;99.10;;;;;;5014606;28;20842;-78
2022/08/14 09:00:17;;;;;;;4.63;3.17;;;25.70;98.50;;;;;;5014557;28;20553;-78
2022/08/14 09:03:00;;;;;;;3.23;2.93;;;26.10;97.30;;;;;;5014848;28;20954;-78
2022/08/14 09:05:27;;;;;;;3.20;2.70;;;26.00;96.00;;;;;;5014435;28;20517;-78
2022/08/14 09:07:55;;;;;;;3.27;2.83;;;26.00;95.70;;;;;;5014645;28;20454;-78
2022/08/14 09:10:22;;;;;;;3.07;2.77;;;26.00;95.50;;;;;;5014481;28;20474;-79
2022/08/14 09:12:49;;;;;;;5.00;2.93;;;26.10;95.10;;;;;;5014692;28;20466;-78
2022/08/14 09:15:17;;;;;;;4.07;2.90;;;26.40;95.90;;;;;;5014061;28;21014;-78
2022/08/14 09:17:44;;;;;;;4.63;3.00;;;26.50;96.10;;;;;;5014494;28;20487;-80
2022/08/14 09:20:12;;;;;;;3.33;2.57;;;26.80;94.30;;;;;;5014450;28;20463;-79
2022/08/14 09:22:40;;;;;;;5.93;3.17;;;27.40;94.00;;;;;;5014710;28;20462;-79
2022/08/14 09:25:07;;;;;;;3.20;2.70;;;28.20;92.80;;;;;;5013935;28;20458;-79
2022/08/14 09:27:36;;;;;;;2.90;2.63;;;28.70;90.70;;;;;;5014321;28;20851;-79
2022/08/14 09:30:04;;;;;;;2.93;2.73;;;29.00;90.00;;;;;;5014518;28;20461;-79
2022/08/14 09:32:45;;;;;;;3.13;2.83;;;29.20;88.60;;;;;;5014444;28;20464;-79
2022/08/14 09:35:19;;;;;;;4.50;2.73;;;29.20;88.10;;;;;;5013958;28;20856;-79
2022/08/14 09:37:57;;;;;;;3.53;3.23;;;29.30;88.80;;;;;;5014310;28;20483;-78
2022/08/14 09:40:35;;;;;;;3.50;3.20;;;29.30;89.40;;;;;;5014325;28;20443;-79
2022/08/14 09:43:15;;;;;;;5.63;3.07;;;29.60;87.20;;;;;;5014008;28;20453;-79
2022/08/14 09:45:46;;;;;;;3.40;3.10;;;30.10;83.50;;;;;;5013669;28;20485;-79
2022/08/14 09:48:17;;;;;;;4.37;3.47;;;30.60;86.10;;;;;;5014048;28;20819;-79
2022/08/14 09:50:48;;;;;;;3.83;3.40;;;30.60;87.50;;;;;;5014286;28;20443;-79
2022/08/14 09:53:18;;;;;;;3.43;3.07;;;30.80;83.30;;;;;;5013943;28;20541;-79
2022/08/14 09:55:57;;;;;;;3.70;2.97;;;31.20;82.10;;;;;;5013778;28;20534;-80
2022/08/14 09:58:34;;;;;;;4.70;3.40;;;31.60;82.00;;;;;;5013897;28;20537;-79
2022/08/14 10:01:11;;;;;;;6.73;3.43;;;31.80;80.70;;;;;;5014088;28;20439;-80
2022/08/14 10:03:50;;;;;;;3.30;3.00;;;31.80;83.10;;;;;;5013930;28;20466;-79
2022/08/14 10:06:19;;;;;;;3.73;3.40;;;32.10;79.60;;;;;;5013558;28;20482;-79
2022/08/14 10:08:49;;;;;;;3.37;3.10;;;32.40;77.20;;;;;;5013270;28;20459;-79
2022/08/14 10:11:18;;;;;;;4.80;3.43;;;32.30;79.10;;;;;;5013503;28;20821;-80
2022/08/14 10:13:53;;;;;;;3.17;2.87;;;32.10;80.30;;;;;;5013702;28;20461;-79
2022/08/14 10:16:22;;;;;;;3.13;2.83;;;32.30;79.00;;;;;;5028475;23;20506;-74
2022/08/14 10:19:05;;;;;;;3.03;2.83;;;32.40;78.40;;;;;;5013156;28;20530;-73
2022/08/14 10:21:32;;;;;;;4.13;3.17;;;32.30;76.20;;;;;;5012827;28;20525;-73
2022/08/14 10:23:59;;;;;;;3.70;2.70;;;32.20;77.80;;;;;;5013142;28;20474;-73
2022/08/14 10:26:26;;;;;;;2.90;2.70;;;32.20;78.00;;;;;;5012939;28;20996;-73
2022/08/14 10:28:55;;;;;;;3.37;3.03;;;32.40;77.30;;;;;;5013350;28;20451;-73
2022/08/14 10:31:24;;;;;;;3.60;3.30;;;32.50;76.30;;;;;;5013104;28;20506;-73
2022/08/14 10:34:00;;;;;;;4.33;3.23;;;32.90;75.30;;;;;;5012759;28;20455;-73
2022/08/14 10:36:35;;;;;;;3.93;3.63;;;33.20;75.20;;;;;;5013035;28;20478;-75
2022/08/14 10:39:04;;;;;;;3.57;3.27;;;33.40;74.10;;;;;;5012823;28;20496;-74
2022/08/14 10:41:40;;;;;;;3.40;3.10;;;33.60;73.50;;;;;;5013174;28;20465;-74
2022/08/14 10:44:10;;;;;;;4.50;3.30;;;33.70;73.50;;;;;;5011856;28;20458;-74
2022/08/14 10:46:42;;;;;;;3.40;3.10;;;34.40;71.80;;;;;;5012958;28;20506;-73
2022/08/14 10:49:18;;;;;;;4.20;3.60;;;34.70;71.50;;;;;;5012747;28;20455;-74
2022/08/14 10:52:00;;;;;;;4.20;3.67;;;35.20;68.40;;;;;;5012877;28;20490;-73
2022/08/14 10:54:33;;;;;;;4.80;3.67;;;35.20;70.40;;;;;;5012470;28;20542;-73
2022/08/14 10:57:15;;;;;;;3.50;3.20;;;34.90;71.80;;;;;;5012706;28;20483;-74
2022/08/14 10:59:44;;;;;;;4.30;3.40;;;34.60;71.70;;;;;;5012708;28;20458;-73
2022/08/14 11:02:30;;;;;;;3.90;3.47;;;34.80;70.10;;;;;;5012780;28;20451;-73
2022/08/14 11:05:01;;;;;;;3.37;3.07;;;34.70;68.00;;;;;;5012407;28;20458;-73
2022/08/14 11:07:30;;;;;;;3.60;2.90;;;35.10;69.40;;;;;;5012909;28;20553;-74
2022/08/14 11:09:59;;;;;;;4.70;3.30;;;35.80;65.70;;;;;;5012668;28;20458;-73
2022/08/14 11:12:40;;;;;;;4.43;3.20;;;36.30;65.70;;;;;;5012491;28;20542;-74
2022/08/14 11:15:08;;;;;;;3.60;3.20;;;36.70;63.80;;;;;;5012305;28;20911;-73
2022/08/14 11:17:35;;;;;;;3.60;2.90;;;37.10;63.80;;;;;;5011844;28;20484;-73
2022/08/14 11:20:06;;;;;;;3.43;3.10;;;37.30;63.60;;;;;;5012528;28;20463;-74
2022/08/14 11:22:39;;;;;;;3.53;3.23;;;37.30;63.40;;;;;;5012426;28;20469;-74
2022/08/14 11:25:09;;;;;;;4.33;3.73;;;37.10;64.80;;;;;;5011996;28;20455;-75
2022/08/14 11:27:38;;;;;;;3.80;3.50;;;37.50;62.70;;;;;;5012371;28;20475;-74
2022/08/14 11:30:07;;;;;;;3.57;3.10;;;37.50;66.30;;;;;;5011805;28;20842;-74
2022/08/14 11:32:35;;;;;;;9.37;3.43;;;37.80;62.30;;;;;;5012145;28;20965;-74
2022/08/14 11:35:02;;;;;;;6.30;3.30;;;37.50;64.10;;;;;;5011943;28;20462;-74
2022/08/14 11:37:32;;;;;;;3.63;3.10;;;37.50;63.20;;;;;;5012100;28;20478;-74
2022/08/14 11:40:01;;;;;;;4.80;3.03;;;37.10;62.00;;;;;;5012378;28;20594;-75
2022/08/14 11:42:30;;;;;;;4.23;3.40;;;36.70;62.30;;;;;;5011787;28;20455;-74
2022/08/14 11:44:59;;;;;;;3.97;3.30;;;36.30;63.90;;;;;;5011541;28;20965;-75
2022/08/14 11:47:27;;;;;;;4.10;3.00;;;36.20;63.00;;;;;;5011956;28;20978;-74
2022/08/14 11:49:54;;;;;;;4.23;2.80;;;36.00;63.50;;;;;;5011886;28;20549;-75
2022/08/14 11:52:21;;;;;;;4.03;3.00;;;36.10;64.50;;;;;;5012104;28;20480;-75
2022/08/14 11:54:57;;;;;;;4.30;3.77;;;36.00;64.70;;;;;;5013901;28;20455;-75
2022/08/14 11:57:25;;;;;;;3.37;3.07;;;36.10;64.50;;;;;;5016005;28;20477;-75
2022/08/14 12:00:01;;;;;;;4.30;3.07;;;36.40;63.30;;;;;;5016021;28;20490;-75
2022/08/14 12:02:28;;;;;;;3.57;3.20;;;36.30;63.00;;;;;;5015859;28;20832;-75
2022/08/14 12:04:55;;;;;;;4.03;3.63;;;36.60;62.80;;;;;;5015835;28;20546;-75
2022/08/14 12:07:22;;;;;;;3.80;3.50;;;36.50;62.10;;;;;;5015839;28;20558;-75
2022/08/14 12:09:54;;;;;;;3.30;3.00;;;36.20;63.00;;;;;;5015590;28;20458;-75
2022/08/14 12:12:22;;;;;;;3.53;3.23;;;36.10;64.00;;;;;;5016149;28;20443;-75
2022/08/14 12:14:55;;;;;;;6.83;3.00;;;36.40;63.00;;;;;;5015880;28;20458;-75
2022/08/14 12:17:23;;;;;;;5.10;2.97;;;37.30;59.20;;;;;;5015616;28;20486;-74
2022/08/14 12:19:52;;;;;;;6.10;3.20;;;37.60;59.30;;;;;;5015592;28;20545;-74
2022/08/14 12:22:20;;;;;;;4.70;2.93;;;37.40;59.90;;;;;;5015602;28;20459;-75
2022/08/14 12:24:50;;;;;;;4.40;3.00;;;37.90;57.90;;;;;;5015438;28;20455;-75
2022/08/14 12:27:16;;;;;;;4.53;3.43;;;38.70;57.50;;;;;;5015647;28;20485;-74
2022/08/14 12:29:55;;;;;;;3.37;3.10;;;38.90;57.30;;;;;;5015318;28;20835;-75
2022/08/14 12:32:22;;;;;;;3.30;2.80;;;38.90;57.80;;;;;;5015266;28;20950;-75
2022/08/14 12:34:54;;;;;;;5.00;3.23;;;38.60;58.30;;;;;;5015238;28;20573;-74
2022/08/14 12:37:29;;;;;;;3.30;3.00;;;38.20;59.20;;;;;;5015259;28;20485;-73
2022/08/14 12:40:07;;;;;;;3.87;3.47;;;38.30;57.10;;;;;;5015178;28;20494;-74
2022/08/14 12:42:35;;;;;;;2.80;2.60;;;38.80;56.20;;;;;;5015188;28;20458;-73
2022/08/14 12:45:04;;;;;;;7.30;3.03;;;38.90;57.30;;;;;;5014778;28;20542;-74
2022/08/14 12:47:31;;;;;;;5.10;3.30;;;38.70;57.70;;;;;;5015086;28;20478;-73
2022/08/14 12:49:58;;;;;;;2.90;2.70;;;38.50;58.10;;;;;;5015133;28;20455;-74
2022/08/14 12:52:31;;;;;;;3.57;3.27;;;38.60;56.90;;;;;;5015124;28;20545;-73
2022/08/14 12:54:59;;;;;;;3.93;3.27;;;38.20;57.40;;;;;;5014679;28;20466;-74
2022/08/14 12:57:35;;;;;;;3.63;3.33;;;37.70;58.30;;;;;;5014606;28;20474;-74
2022/08/14 13:00:11;;;;;;;3.43;3.13;;;37.40;57.90;;;;;;5014827;28;20585;-73
2022/08/14 13:02:40;;;;;;;4.10;3.70;;;37.50;57.20;;;;;;5014822;28;20458;-73
2022/08/14 13:05:11;;;;;;;3.47;3.10;;;37.40;58.80;;;;;;5014444;28;20459;-74
2022/08/14 13:07:39;;;;;;;2.80;2.60;;;37.10;58.60;;;;;;5014580;28;20479;-74
2022/08/14 13:10:08;;;;;;;3.40;3.10;;;37.20;58.00;;;;;;5014681;28;20455;-74
2022/08/14 13:12:37;;;;;;;3.50;3.20;;;37.30;57.90;;;;;;5014568;28;20509;-74
2022/08/14 13:15:07;;;;;;;3.80;3.50;;;37.50;57.10;;;;;;5014141;28;20871;-74
2022/08/14 13:17:40;;;;;;;6.40;3.20;;;37.80;57.10;;;;;;5014621;28;20482;-74
2022/08/14 13:20:09;;;;;;;4.07;3.30;;;37.40;57.70;;;;;;5014666;28;20475;-74
2022/08/14 13:22:38;;;;;;;6.93;3.60;;;37.20;57.40;;;;;;5014321;28;20458;-74
2022/08/14 13:25:06;;;;;;;4.67;3.47;;;37.10;58.30;;;;;;5014058;28;20454;-74
2022/08/14 13:27:34;;;;;;;3.10;2.80;;;36.90;58.20;;;;;;5014484;28;20478;-74
2022/08/14 13:30:02;;;;;;;5.00;3.27;;;36.80;57.20;;;;;;5014602;28;20450;-74
2022/08/14 13:32:32;;;;;;;5.00;3.20;;;36.80;56.80;;;;;;5014481;28;20541;-74
2022/08/14 13:35:00;;;;;;;3.60;3.30;;;36.70;56.80;;;;;;5013649;28;20903;-74
2022/08/14 13:37:27;;;;;;;4.57;2.93;;;36.70;58.20;;;;;;5014549;28;20478;-74
2022/08/14 13:39:55;;;;;;;3.30;3.00;;;36.60;57.60;;;;;;5014008;28;21010;-74
2022/08/14 13:42:26;;;;;;;4.13;3.40;;;36.60;59.40;;;;;;5014193;28;20469;-74
2022/08/14 13:44:54;;;;;;;3.63;3.27;;;36.50;57.00;;;;;;5013880;28;20924;-74
2022/08/14 13:47:22;;;;;;;4.27;3.33;;;36.10;57.30;;;;;;5013667;28;20986;-74
2022/08/14 13:49:52;;;;;;;3.73;2.70;;;36.00;58.80;;;;;;5014131;28;20447;-74
2022/08/14 13:52:21;;;;;;;3.50;3.23;;;35.90;57.40;;;;;;5014030;28;20458;-74
2022/08/14 13:54:49;;;;;;;3.70;3.27;;;35.90;57.40;;;;;;5013631;28;20943;-74
2022/08/14 13:57:18;;;;;;;3.27;2.97;;;35.90;57.50;;;;;;5014009;28;20474;-74
2022/08/14 13:59:46;;;;;;;5.60;3.33;;;35.90;59.00;;;;;;5014068;28;20493;-74
2022/08/14 14:02:16;;;;;;;3.40;3.10;;;35.80;60.60;;;;;;5013532;28;20451;-74
2022/08/14 14:04:46;;;;;;;3.53;3.23;;;35.70;58.00;;;;;;5014661;28;20454;-74
2022/08/14 14:07:20;;;;;;;4.83;3.17;;;35.60;59.10;;;;;;5013628;28;20478;-74
2022/08/14 14:09:49;;;;;;;3.43;3.13;;;35.50;58.10;;;;;;5014009;28;20438;-74
2022/08/14 14:12:16;;;;;;;3.43;3.13;;;35.30;58.10;;;;;;5013479;28;20466;-74
2022/08/14 14:14:49;;;;;;;3.27;2.97;;;35.10;57.50;;;;;;5013265;28;20455;-74
2022/08/14 14:17:17;;;;;;;3.00;2.70;;;35.00;57.70;;;;;;5011724;28;20927;-74
2022/08/14 14:19:45;;;;;;;3.40;3.10;;;35.00;57.70;;;;;;5013070;28;20497;-74
2022/08/14 14:22:15;;;;;;;3.57;3.27;;;34.90;58.20;;;;;;5013466;28;20473;-75
2022/08/14 14:24:43;;;;;;;4.63;3.37;;;35.00;57.70;;;;;;5012874;28;20935;-75
2022/08/14 14:27:15;;;;;;;3.50;3.10;;;34.90;57.50;;;;;;5012916;28;20478;-74
2022/08/14 14:29:45;;;;;;;2.90;2.60;;;34.90;57.40;;;;;;5013491;28;20440;-74
2022/08/14 14:32:12;;;;;;;5.20;3.10;;;34.90;58.00;;;;;;5013247;28;20462;-74
2022/08/14 14:34:41;;;;;;;3.27;2.97;;;34.90;59.90;;;;;;5012781;28;20468;-74
2022/08/14 14:37:14;;;;;;;3.33;3.03;;;34.90;59.20;;;;;;5012939;28;20475;-74
2022/08/14 14:39:42;;;;;;;3.40;2.90;;;35.00;59.50;;;;;;5012631;28;20498;-74
2022/08/14 14:42:10;;;;;;;3.47;3.17;;;35.00;59.10;;;;;;5013171;28;20481;-74
2022/08/14 14:44:40;;;;;;;2.93;2.63;;;35.00;57.80;;;;;;5012930;28;20454;-74
2022/08/14 14:47:08;;;;;;;3.90;3.23;;;34.90;57.50;;;;;;5013259;28;20478;-75
2022/08/14 14:49:36;;;;;;;3.57;3.27;;;34.80;60.30;;;;;;5013102;28;20458;-75
2022/08/14 14:52:05;;;;;;;3.60;3.30;;;34.90;60.40;;;;;;5012555;28;20458;-75
2022/08/14 14:54:34;;;;;;;3.50;3.20;;;34.90;59.80;;;;;;5012798;28;20469;-75
2022/08/14 14:57:01;;;;;;;3.70;3.40;;;34.90;58.90;;;;;;5012620;28;20490;-75
2022/08/14 14:59:28;;;;;;;3.10;2.60;;;34.80;57.60;;;;;;5012883;28;21062;-75
2022/08/14 15:02:00;;;;;;;3.37;3.00;;;34.60;57.60;;;;;;5012783;28;20458;-75
2022/08/14 15:04:27;;;;;;;3.63;2.97;;;34.50;57.40;;;;;;5012479;28;20465;-75
2022/08/14 15:06:54;;;;;;;3.50;3.17;;;34.50;58.90;;;;;;5012841;28;20478;-75
2022/08/14 15:09:21;;;;;;;3.10;2.90;;;34.50;59.00;;;;;;5012355;28;20455;-75
2022/08/14 15:11:51;;;;;;;3.03;2.73;;;34.60;57.80;;;;;;5012792;28;20458;-75
2022/08/14 15:14:19;;;;;;;2.60;2.40;;;34.50;56.90;;;;;;5011998;28;20465;-75
2022/08/14 15:16:46;;;;;;;2.77;2.57;;;34.50;58.80;;;;;;5012277;28;20490;-75
2022/08/14 15:19:13;;;;;;;3.90;2.67;;;34.40;56.80;;;;;;5011976;28;20830;-75
2022/08/14 15:21:40;;;;;;;4.10;2.70;;;34.40;58.10;;;;;;5012257;28;20466;-75
2022/08/14 15:24:07;;;;;;;3.53;2.90;;;34.40;57.60;;;;;;5012053;28;20466;-75
2022/08/14 15:26:34;;;;;;;2.70;2.50;;;34.40;57.40;;;;;;5012230;28;20855;-75
2022/08/14 15:29:04;;;;;;;2.70;2.50;;;34.40;58.90;;;;;;5012305;28;20457;-75
2022/08/14 15:31:31;;;;;;;3.03;2.60;;;34.30;57.60;;;;;;5012981;28;20439;-75
2022/08/14 15:34:10;;;;;;;2.73;2.53;;;34.20;57.60;;;;;;5011986;28;20466;-75
2022/08/14 15:36:38;;;;;;;2.73;2.53;;;34.20;59.00;;;;;;5012547;28;20479;-75
2022/08/14 15:39:05;;;;;;;3.10;2.90;;;34.20;58.90;;;;;;5012324;28;20490;-75
2022/08/14 15:41:33;;;;;;;5.63;3.13;;;34.20;58.20;;;;;;5012640;28;20461;-75
2022/08/14 15:44:01;;;;;;;4.00;3.40;;;34.30;59.30;;;;;;5012714;28;20451;-75
2022/08/14 15:46:29;;;;;;;4.50;3.37;;;34.20;59.20;;;;;;5012245;28;20478;-75
2022/08/14 15:48:56;;;;;;;4.27;3.07;;;34.10;59.20;;;;;;5012558;28;20463;-74
2022/08/14 15:51:23;;;;;;;3.97;2.80;;;34.00;59.40;;;;;;5012745;28;20471;-74
2022/08/14 15:53:50;;;;;;;3.90;3.00;;;34.00;59.60;;;;;;5012660;28;20462;-75
2022/08/14 15:56:17;;;;;;;3.50;2.90;;;33.90;61.60;;;;;;5012016;28;20518;-75
2022/08/14 15:58:44;;;;;;;3.17;2.90;;;33.90;59.90;;;;;;5012159;28;20457;-75
2022/08/14 16:01:22;;;;;;;3.30;3.00;;;33.90;58.30;;;;;;5012381;28;20521;-75
2022/08/14 16:03:52;;;;;;;3.17;2.70;;;33.90;59.20;;;;;;5012228;28;20814;-75
2022/08/14 16:06:20;;;;;;;4.93;2.63;;;33.90;57.50;;;;;;5012031;28;20467;-74
2022/08/14 16:08:50;;;;;;;7.20;4.13;;;33.80;57.40;;;;;;5012055;28;20447;-74
2022/08/14 16:11:18;;;;;;;8.00;4.30;;;33.70;57.30;;;;;;5011672;28;20459;-74
2022/08/14 16:13:45;;;;;;;6.20;4.60;;;33.70;57.80;;;;;;5012623;28;20458;-74
2022/08/14 16:16:19;;;;;;;3.57;3.17;;;33.60;57.30;;;;;;5012328;28;20493;-75
2022/08/14 16:18:46;;;;;;;3.00;2.53;;;33.50;56.90;;;;;;5012201;28;20443;-73
2022/08/14 16:21:15;;;;;;;3.60;3.07;;;33.50;56.90;;;;;;5011984;28;20493;-74
2022/08/14 16:23:46;;;;;;;2.90;2.67;;;33.50;57.70;;;;;;5012452;28;20825;-73
2022/08/14 16:26:15;;;;;;;2.60;2.40;;;33.50;57.60;;;;;;5011716;28;21073;-73
2022/08/14 16:28:43;;;;;;;4.67;2.80;;;33.50;57.10;;;;;;5012182;28;20459;-74
2022/08/14 16:31:10;;;;;;;2.80;2.60;;;33.50;57.60;;;;;;5011809;28;20473;-73
2022/08/14 16:33:38;;;;;;;4.90;2.97;;;33.40;57.90;;;;;;5011714;28;20460;-74
2022/08/14 16:36:07;;;;;;;3.10;2.50;;;33.30;57.70;;;;;;5011527;28;20477;-74
2022/08/14 16:38:35;;;;;;;2.90;2.60;;;33.30;58.10;;;;;;5011550;28;20522;-73
2022/08/14 16:41:26;;;;;;;3.17;2.87;;;33.30;57.00;;;;;;5012938;28;20853;-73
2022/08/14 16:43:56;;;;;;;3.90;2.23;;;33.20;55.80;;;;;;5015534;28;20553;-74
2022/08/14 16:46:23;;;;;;;2.83;2.53;;;33.10;55.70;;;;;;5014975;28;21011;-74
2022/08/14 16:48:52;;;;;;;3.30;2.40;;;33.00;56.20;;;;;;5014832;28;20463;-74
2022/08/14 16:51:20;;;;;;;2.90;2.57;;;32.90;56.10;;;;;;5015336;28;20531;-73
2022/08/14 16:53:47;;;;;;;2.60;2.40;;;32.80;56.00;;;;;;5015129;28;20539;-74
2022/08/14 16:56:21;;;;;;;4.10;2.30;;;32.80;55.50;;;;;;5014954;28;20466;-74
2022/08/14 16:58:49;;;;;;;2.70;2.47;;;32.80;55.70;;;;;;5015293;28;20439;-74
2022/08/14 17:01:20;;;;;;;2.53;2.27;;;32.70;55.30;;;;;;5014799;28;20564;-74
2022/08/14 17:04:02;;;;;;;2.60;2.40;;;32.60;55.20;;;;;;5014874;28;20443;-73
2022/08/14 17:06:51;;;;;;;2.60;2.30;;;32.50;55.90;;;;;;5014666;28;20492;-73
2022/08/14 17:09:27;;;;;;;4.90;4.40;;;32.50;56.00;;;;;;5008400;28;20963;-75
2022/08/14 17:11:57;;;;;;;4.50;3.53;;;32.40;59.30;;;;;;5015133;28;20468;-74